Aviation Digital Data Service (ADDS)

Output produced by TAFs form (0636 UTC 24 September 2017)
found at http://aviationweather.gov/adds/tafs/
 
KRIL 240524Z 2406/2506 25004KT P6SM SCT200 
     FM241700 25008KT P6SM FEW060 SCT130 
     FM242000 26015G25KT P6SM FEW080 SCT120 
     FM250100 25010KT P6SM FEW080 SCT150 
     FM250300 22004KT P6SM FEW080 SCT200